sensor_id;sensor_type;location;lat;lon;timestamp;P1;durP1;ratioP1;P2;durP2;ratioP2
59390;SDS011;53405;57.012;40.984;2023-07-31T00:01:07;9.73;;;5.55;;
59390;SDS011;53405;57.012;40.984;2023-07-31T00:03:34;11.60;;;5.85;;
59390;SDS011;53405;57.012;40.984;2023-07-31T00:06:02;9.18;;;5.20;;
59390;SDS011;53405;57.012;40.984;2023-07-31T00:08:30;9.90;;;5.45;;
59390;SDS011;53405;57.012;40.984;2023-07-31T00:10:58;11.38;;;6.28;;
59390;SDS011;53405;57.012;40.984;2023-07-31T00:13:26;10.10;;;5.80;;
59390;SDS011;53405;57.012;40.984;2023-07-31T00:15:53;8.02;;;5.95;;
59390;SDS011;53405;57.012;40.984;2023-07-31T00:18:21;11.65;;;5.55;;
59390;SDS011;53405;57.012;40.984;2023-07-31T00:20:48;8.18;;;5.50;;
59390;SDS011;53405;57.012;40.984;2023-07-31T00:23:16;9.30;;;5.60;;
59390;SDS011;53405;57.012;40.984;2023-07-31T00:25:43;10.23;;;6.07;;
59390;SDS011;53405;57.012;40.984;2023-07-31T00:28:11;12.13;;;6.30;;
59390;SDS011;53405;57.012;40.984;2023-07-31T00:30:39;10.40;;;6.47;;
59390;SDS011;53405;57.012;40.984;2023-07-31T00:33:07;10.32;;;5.93;;
59390;SDS011;53405;57.012;40.984;2023-07-31T00:35:37;11.13;;;5.68;;
59390;SDS011;53405;57.012;40.984;2023-07-31T00:38:04;11.85;;;6.55;;
59390;SDS011;53405;57.012;40.984;2023-07-31T00:40:36;9.93;;;6.47;;
59390;SDS011;53405;57.012;40.984;2023-07-31T00:43:04;12.82;;;6.75;;
59390;SDS011;53405;57.012;40.984;2023-07-31T00:45:34;10.45;;;6.50;;
59390;SDS011;53405;57.012;40.984;2023-07-31T00:48:02;9.63;;;6.57;;
59390;SDS011;53405;57.012;40.984;2023-07-31T00:50:30;9.32;;;6.38;;
59390;SDS011;53405;57.012;40.984;2023-07-31T00:52:58;8.77;;;6.25;;
59390;SDS011;53405;57.012;40.984;2023-07-31T00:55:26;9.97;;;6.30;;
59390;SDS011;53405;57.012;40.984;2023-07-31T00:57:54;10.85;;;6.97;;
59390;SDS011;53405;57.012;40.984;2023-07-31T01:00:23;10.65;;;5.80;;
59390;SDS011;53405;57.012;40.984;2023-07-31T01:02:51;10.32;;;6.80;;
59390;SDS011;53405;57.012;40.984;2023-07-31T01:05:20;9.35;;;6.30;;
59390;SDS011;53405;57.012;40.984;2023-07-31T01:10:46;10.00;;;6.60;;
59390;SDS011;53405;57.012;40.984;2023-07-31T01:13:18;9.40;;;6.10;;
59390;SDS011;53405;57.012;40.984;2023-07-31T01:15:47;10.60;;;7.10;;
59390;SDS011;53405;57.012;40.984;2023-07-31T01:18:14;10.43;;;6.75;;
59390;SDS011;53405;57.012;40.984;2023-07-31T01:20:42;11.52;;;7.07;;
59390;SDS011;53405;57.012;40.984;2023-07-31T01:28:52;11.80;;;6.15;;
59390;SDS011;53405;57.012;40.984;2023-07-31T01:31:23;12.65;;;6.80;;
59390;SDS011;53405;57.012;40.984;2023-07-31T01:33:53;13.63;;;6.93;;
59390;SDS011;53405;57.012;40.984;2023-07-31T01:36:22;9.80;;;6.65;;
59390;SDS011;53405;57.012;40.984;2023-07-31T01:38:51;11.48;;;7.32;;
59390;SDS011;53405;57.012;40.984;2023-07-31T01:41:18;10.10;;;6.57;;
59390;SDS011;53405;57.012;40.984;2023-07-31T01:43:46;10.95;;;6.80;;
59390;SDS011;53405;57.012;40.984;2023-07-31T01:46:14;10.13;;;7.47;;
59390;SDS011;53405;57.012;40.984;2023-07-31T01:48:41;11.18;;;7.22;;
59390;SDS011;53405;57.012;40.984;2023-07-31T01:51:09;11.88;;;7.70;;
59390;SDS011;53405;57.012;40.984;2023-07-31T01:53:37;11.77;;;7.95;;
59390;SDS011;53405;57.012;40.984;2023-07-31T01:56:07;11.75;;;7.38;;
59390;SDS011;53405;57.012;40.984;2023-07-31T01:58:35;13.85;;;8.00;;
59390;SDS011;53405;57.012;40.984;2023-07-31T02:01:03;12.30;;;8.00;;
59390;SDS011;53405;57.012;40.984;2023-07-31T02:03:34;12.35;;;8.40;;
59390;SDS011;53405;57.012;40.984;2023-07-31T02:06:01;11.88;;;7.68;;
59390;SDS011;53405;57.012;40.984;2023-07-31T02:08:29;10.75;;;7.35;;
59390;SDS011;53405;57.012;40.984;2023-07-31T02:10:57;11.75;;;7.82;;
59390;SDS011;53405;57.012;40.984;2023-07-31T02:13:25;10.95;;;7.40;;
59390;SDS011;53405;57.012;40.984;2023-07-31T02:15:53;10.55;;;7.75;;
59390;SDS011;53405;57.012;40.984;2023-07-31T02:18:21;16.42;;;7.90;;
59390;SDS011;53405;57.012;40.984;2023-07-31T02:20:50;12.05;;;8.05;;
59390;SDS011;53405;57.012;40.984;2023-07-31T02:23:19;12.80;;;7.93;;
59390;SDS011;53405;57.012;40.984;2023-07-31T02:25:47;12.57;;;8.10;;
59390;SDS011;53405;57.012;40.984;2023-07-31T02:28:15;13.10;;;7.72;;
59390;SDS011;53405;57.012;40.984;2023-07-31T02:30:45;13.00;;;8.20;;
59390;SDS011;53405;57.012;40.984;2023-07-31T02:33:16;10.57;;;7.68;;
59390;SDS011;53405;57.012;40.984;2023-07-31T02:35:44;11.43;;;7.45;;
59390;SDS011;53405;57.012;40.984;2023-07-31T02:38:11;15.32;;;8.50;;
59390;SDS011;53405;57.012;40.984;2023-07-31T02:40:41;12.57;;;7.95;;
59390;SDS011;53405;57.012;40.984;2023-07-31T02:43:08;13.43;;;8.43;;
59390;SDS011;53405;57.012;40.984;2023-07-31T02:45:36;12.23;;;8.23;;
59390;SDS011;53405;57.012;40.984;2023-07-31T02:48:04;11.02;;;7.53;;
59390;SDS011;53405;57.012;40.984;2023-07-31T02:50:32;10.77;;;7.53;;
59390;SDS011;53405;57.012;40.984;2023-07-31T02:53:00;10.32;;;8.07;;
59390;SDS011;53405;57.012;40.984;2023-07-31T02:55:28;11.23;;;7.75;;
59390;SDS011;53405;57.012;40.984;2023-07-31T02:57:55;15.55;;;8.40;;
59390;SDS011;53405;57.012;40.984;2023-07-31T03:00:23;11.30;;;8.18;;
59390;SDS011;53405;57.012;40.984;2023-07-31T03:02:51;11.10;;;7.57;;
59390;SDS011;53405;57.012;40.984;2023-07-31T03:05:18;9.90;;;7.78;;
59390;SDS011;53405;57.012;40.984;2023-07-31T03:07:46;11.55;;;8.32;;
59390;SDS011;53405;57.012;40.984;2023-07-31T03:10:14;10.13;;;7.07;;
59390;SDS011;53405;57.012;40.984;2023-07-31T03:12:42;14.85;;;8.25;;
59390;SDS011;53405;57.012;40.984;2023-07-31T03:15:13;10.98;;;7.47;;
59390;SDS011;53405;57.012;40.984;2023-07-31T03:17:41;11.27;;;8.18;;
59390;SDS011;53405;57.012;40.984;2023-07-31T03:20:08;10.95;;;7.53;;
59390;SDS011;53405;57.012;40.984;2023-07-31T03:22:36;12.15;;;8.10;;
59390;SDS011;53405;57.012;40.984;2023-07-31T03:25:04;10.30;;;7.68;;
59390;SDS011;53405;57.012;40.984;2023-07-31T03:27:32;11.20;;;7.35;;
59390;SDS011;53405;57.012;40.984;2023-07-31T03:30:00;11.10;;;7.20;;
59390;SDS011;53405;57.012;40.984;2023-07-31T03:32:31;12.52;;;7.95;;
59390;SDS011;53405;57.012;40.984;2023-07-31T03:34:59;11.43;;;8.00;;
59390;SDS011;53405;57.012;40.984;2023-07-31T03:37:30;11.43;;;7.93;;
59390;SDS011;53405;57.012;40.984;2023-07-31T03:39:57;11.23;;;7.60;;
59390;SDS011;53405;57.012;40.984;2023-07-31T03:42:25;13.38;;;7.35;;
59390;SDS011;53405;57.012;40.984;2023-07-31T03:44:53;10.25;;;7.28;;
59390;SDS011;53405;57.012;40.984;2023-07-31T03:47:21;11.93;;;8.13;;
59390;SDS011;53405;57.012;40.984;2023-07-31T03:49:49;14.38;;;7.57;;
59390;SDS011;53405;57.012;40.984;2023-07-31T03:52:17;11.82;;;7.13;;
59390;SDS011;53405;57.012;40.984;2023-07-31T03:54:44;24.05;;;21.45;;
59390;SDS011;53405;57.012;40.984;2023-07-31T03:57:12;10.27;;;7.10;;
59390;SDS011;53405;57.012;40.984;2023-07-31T03:59:40;10.52;;;7.45;;
59390;SDS011;53405;57.012;40.984;2023-07-31T04:02:08;12.63;;;7.63;;
59390;SDS011;53405;57.012;40.984;2023-07-31T04:04:37;13.18;;;8.60;;
59390;SDS011;53405;57.012;40.984;2023-07-31T04:07:05;11.40;;;7.28;;
59390;SDS011;53405;57.012;40.984;2023-07-31T04:09:32;11.43;;;8.05;;
59390;SDS011;53405;57.012;40.984;2023-07-31T04:12:00;14.13;;;7.90;;
59390;SDS011;53405;57.012;40.984;2023-07-31T04:14:28;11.25;;;7.32;;
59390;SDS011;53405;57.012;40.984;2023-07-31T04:16:56;11.15;;;6.93;;
59390;SDS011;53405;57.012;40.984;2023-07-31T04:19:24;9.68;;;6.72;;
59390;SDS011;53405;57.012;40.984;2023-07-31T04:21:51;11.13;;;6.57;;
59390;SDS011;53405;57.012;40.984;2023-07-31T04:24:19;12.45;;;6.60;;
59390;SDS011;53405;57.012;40.984;2023-07-31T04:26:51;9.98;;;6.13;;
59390;SDS011;53405;57.012;40.984;2023-07-31T04:29:20;12.17;;;7.07;;
59390;SDS011;53405;57.012;40.984;2023-07-31T04:31:48;10.05;;;6.75;;
59390;SDS011;53405;57.012;40.984;2023-07-31T04:34:16;10.02;;;6.80;;
59390;SDS011;53405;57.012;40.984;2023-07-31T04:36:43;10.05;;;6.47;;
59390;SDS011;53405;57.012;40.984;2023-07-31T04:39:10;8.90;;;5.82;;
59390;SDS011;53405;57.012;40.984;2023-07-31T04:41:38;9.57;;;6.22;;
59390;SDS011;53405;57.012;40.984;2023-07-31T04:44:06;8.40;;;6.07;;
59390;SDS011;53405;57.012;40.984;2023-07-31T04:46:34;11.75;;;6.53;;
59390;SDS011;53405;57.012;40.984;2023-07-31T04:49:01;7.97;;;5.78;;
59390;SDS011;53405;57.012;40.984;2023-07-31T04:51:29;9.43;;;6.65;;
59390;SDS011;53405;57.012;40.984;2023-07-31T04:53:56;9.65;;;6.22;;
59390;SDS011;53405;57.012;40.984;2023-07-31T04:56:24;8.57;;;5.82;;
59390;SDS011;53405;57.012;40.984;2023-07-31T04:58:52;11.98;;;6.78;;
59390;SDS011;53405;57.012;40.984;2023-07-31T05:01:19;10.48;;;6.55;;
59390;SDS011;53405;57.012;40.984;2023-07-31T05:03:47;14.05;;;6.75;;
59390;SDS011;53405;57.012;40.984;2023-07-31T05:06:15;8.68;;;6.53;;
59390;SDS011;53405;57.012;40.984;2023-07-31T05:08:42;10.73;;;6.57;;
59390;SDS011;53405;57.012;40.984;2023-07-31T05:11:10;9.93;;;7.13;;
59390;SDS011;53405;57.012;40.984;2023-07-31T05:13:37;10.40;;;6.60;;
59390;SDS011;53405;57.012;40.984;2023-07-31T05:16:05;9.18;;;6.57;;
59390;SDS011;53405;57.012;40.984;2023-07-31T05:18:33;10.75;;;6.18;;
59390;SDS011;53405;57.012;40.984;2023-07-31T05:21:00;10.80;;;6.20;;
59390;SDS011;53405;57.012;40.984;2023-07-31T05:23:28;10.23;;;5.80;;
59390;SDS011;53405;57.012;40.984;2023-07-31T05:26:02;14.02;;;6.00;;
59390;SDS011;53405;57.012;40.984;2023-07-31T05:28:34;9.25;;;6.00;;
59390;SDS011;53405;57.012;40.984;2023-07-31T05:31:02;8.32;;;5.50;;
59390;SDS011;53405;57.012;40.984;2023-07-31T05:33:31;10.57;;;6.68;;
59390;SDS011;53405;57.012;40.984;2023-07-31T05:35:59;7.15;;;5.50;;
59390;SDS011;53405;57.012;40.984;2023-07-31T05:38:27;10.48;;;5.97;;
59390;SDS011;53405;57.012;40.984;2023-07-31T05:40:55;9.23;;;6.03;;
59390;SDS011;53405;57.012;40.984;2023-07-31T05:43:23;11.43;;;6.85;;
59390;SDS011;53405;57.012;40.984;2023-07-31T05:45:50;15.55;;;12.43;;
59390;SDS011;53405;57.012;40.984;2023-07-31T05:48:18;15.38;;;11.23;;
59390;SDS011;53405;57.012;40.984;2023-07-31T05:50:46;11.15;;;7.72;;
59390;SDS011;53405;57.012;40.984;2023-07-31T05:53:13;12.88;;;7.65;;
59390;SDS011;53405;57.012;40.984;2023-07-31T05:55:41;10.02;;;6.70;;
59390;SDS011;53405;57.012;40.984;2023-07-31T05:58:08;13.05;;;7.70;;
59390;SDS011;53405;57.012;40.984;2023-07-31T06:00:36;12.13;;;7.28;;
59390;SDS011;53405;57.012;40.984;2023-07-31T06:03:04;10.95;;;7.50;;
59390;SDS011;53405;57.012;40.984;2023-07-31T06:05:31;9.07;;;7.00;;
59390;SDS011;53405;57.012;40.984;2023-07-31T06:07:59;8.73;;;6.43;;
59390;SDS011;53405;57.012;40.984;2023-07-31T06:10:27;11.45;;;7.10;;
59390;SDS011;53405;57.012;40.984;2023-07-31T06:12:55;9.50;;;6.40;;
59390;SDS011;53405;57.012;40.984;2023-07-31T06:15:24;10.90;;;6.82;;
59390;SDS011;53405;57.012;40.984;2023-07-31T06:17:52;15.48;;;6.55;;
59390;SDS011;53405;57.012;40.984;2023-07-31T06:20:19;9.77;;;6.35;;
59390;SDS011;53405;57.012;40.984;2023-07-31T06:22:47;10.07;;;6.43;;
59390;SDS011;53405;57.012;40.984;2023-07-31T06:25:15;10.75;;;6.97;;
59390;SDS011;53405;57.012;40.984;2023-07-31T06:27:42;11.30;;;6.85;;
59390;SDS011;53405;57.012;40.984;2023-07-31T06:30:10;13.05;;;7.63;;
59390;SDS011;53405;57.012;40.984;2023-07-31T06:32:38;10.90;;;7.18;;
59390;SDS011;53405;57.012;40.984;2023-07-31T06:35:07;11.55;;;7.72;;
59390;SDS011;53405;57.012;40.984;2023-07-31T06:37:35;10.77;;;7.45;;
59390;SDS011;53405;57.012;40.984;2023-07-31T06:40:03;11.63;;;7.57;;
59390;SDS011;53405;57.012;40.984;2023-07-31T06:42:34;13.30;;;7.60;;
59390;SDS011;53405;57.012;40.984;2023-07-31T06:45:02;10.10;;;7.87;;
59390;SDS011;53405;57.012;40.984;2023-07-31T06:47:32;11.20;;;7.18;;
59390;SDS011;53405;57.012;40.984;2023-07-31T06:50:00;14.00;;;8.35;;
59390;SDS011;53405;57.012;40.984;2023-07-31T06:52:30;12.70;;;7.97;;
59390;SDS011;53405;57.012;40.984;2023-07-31T06:55:02;13.40;;;8.52;;
59390;SDS011;53405;57.012;40.984;2023-07-31T06:57:31;15.10;;;8.25;;
59390;SDS011;53405;57.012;40.984;2023-07-31T06:59:59;15.43;;;9.90;;
59390;SDS011;53405;57.012;40.984;2023-07-31T07:02:27;11.13;;;7.65;;
59390;SDS011;53405;57.012;40.984;2023-07-31T07:04:54;10.63;;;6.90;;
59390;SDS011;53405;57.012;40.984;2023-07-31T07:07:22;10.55;;;6.63;;
59390;SDS011;53405;57.012;40.984;2023-07-31T07:09:50;16.35;;;8.20;;
59390;SDS011;53405;57.012;40.984;2023-07-31T07:12:18;11.07;;;7.55;;
59390;SDS011;53405;57.012;40.984;2023-07-31T07:14:45;10.90;;;6.70;;
59390;SDS011;53405;57.012;40.984;2023-07-31T07:17:14;11.48;;;7.18;;
59390;SDS011;53405;57.012;40.984;2023-07-31T07:19:42;11.52;;;6.90;;
59390;SDS011;53405;57.012;40.984;2023-07-31T07:22:10;13.57;;;7.18;;
59390;SDS011;53405;57.012;40.984;2023-07-31T07:24:37;8.93;;;6.40;;
59390;SDS011;53405;57.012;40.984;2023-07-31T07:27:05;10.50;;;6.35;;
59390;SDS011;53405;57.012;40.984;2023-07-31T07:29:37;8.75;;;6.15;;
59390;SDS011;53405;57.012;40.984;2023-07-31T07:32:05;8.63;;;5.78;;
59390;SDS011;53405;57.012;40.984;2023-07-31T07:37:02;12.60;;;6.70;;
59390;SDS011;53405;57.012;40.984;2023-07-31T07:39:30;12.25;;;6.10;;
59390;SDS011;53405;57.012;40.984;2023-07-31T07:41:57;8.10;;;5.93;;
59390;SDS011;53405;57.012;40.984;2023-07-31T07:44:25;10.50;;;5.90;;
59390;SDS011;53405;57.012;40.984;2023-07-31T07:46:53;9.02;;;5.25;;
59390;SDS011;53405;57.012;40.984;2023-07-31T07:49:21;9.63;;;5.85;;
59390;SDS011;53405;57.012;40.984;2023-07-31T07:51:52;11.55;;;5.78;;
59390;SDS011;53405;57.012;40.984;2023-07-31T07:54:20;9.85;;;6.13;;
59390;SDS011;53405;57.012;40.984;2023-07-31T07:56:48;8.27;;;6.45;;
59390;SDS011;53405;57.012;40.984;2023-07-31T07:59:16;9.93;;;5.87;;
59390;SDS011;53405;57.012;40.984;2023-07-31T08:01:44;8.52;;;5.93;;
59390;SDS011;53405;57.012;40.984;2023-07-31T08:04:12;8.98;;;5.63;;
59390;SDS011;53405;57.012;40.984;2023-07-31T08:06:39;8.32;;;5.88;;
59390;SDS011;53405;57.012;40.984;2023-07-31T08:09:07;8.18;;;5.20;;
59390;SDS011;53405;57.012;40.984;2023-07-31T08:11:36;7.97;;;5.07;;
59390;SDS011;53405;57.012;40.984;2023-07-31T08:14:03;7.13;;;4.95;;
59390;SDS011;53405;57.012;40.984;2023-07-31T08:16:31;8.77;;;5.40;;
59390;SDS011;53405;57.012;40.984;2023-07-31T08:18:58;7.63;;;4.95;;
59390;SDS011;53405;57.012;40.984;2023-07-31T08:21:26;8.70;;;5.40;;
59390;SDS011;53405;57.012;40.984;2023-07-31T08:23:54;9.98;;;5.03;;
59390;SDS011;53405;57.012;40.984;2023-07-31T08:26:22;6.72;;;4.63;;
59390;SDS011;53405;57.012;40.984;2023-07-31T08:28:49;7.07;;;4.95;;
59390;SDS011;53405;57.012;40.984;2023-07-31T08:31:18;9.38;;;5.28;;
59390;SDS011;53405;57.012;40.984;2023-07-31T08:33:46;10.00;;;5.30;;
59390;SDS011;53405;57.012;40.984;2023-07-31T08:36:14;7.22;;;5.07;;
59390;SDS011;53405;57.012;40.984;2023-07-31T08:38:41;8.43;;;4.88;;
59390;SDS011;53405;57.012;40.984;2023-07-31T08:41:09;9.00;;;4.45;;
59390;SDS011;53405;57.012;40.984;2023-07-31T08:43:36;7.55;;;4.57;;
59390;SDS011;53405;57.012;40.984;2023-07-31T08:46:05;6.55;;;4.25;;
59390;SDS011;53405;57.012;40.984;2023-07-31T08:48:33;7.43;;;4.00;;
59390;SDS011;53405;57.012;40.984;2023-07-31T08:51:02;10.50;;;4.45;;
59390;SDS011;53405;57.012;40.984;2023-07-31T08:53:30;8.13;;;4.25;;
59390;SDS011;53405;57.012;40.984;2023-07-31T08:55:58;7.18;;;3.80;;
59390;SDS011;53405;57.012;40.984;2023-07-31T08:58:27;6.60;;;3.88;;
59390;SDS011;53405;57.012;40.984;2023-07-31T09:01:00;8.73;;;3.67;;
59390;SDS011;53405;57.012;40.984;2023-07-31T09:03:33;7.38;;;3.60;;
59390;SDS011;53405;57.012;40.984;2023-07-31T09:06:02;7.28;;;3.90;;
59390;SDS011;53405;57.012;40.984;2023-07-31T09:08:33;7.97;;;3.45;;
59390;SDS011;53405;57.012;40.984;2023-07-31T09:11:01;5.20;;;3.55;;
59390;SDS011;53405;57.012;40.984;2023-07-31T09:13:33;7.25;;;3.65;;
59390;SDS011;53405;57.012;40.984;2023-07-31T09:16:00;7.22;;;3.63;;
59390;SDS011;53405;57.012;40.984;2023-07-31T09:18:28;6.80;;;3.70;;
59390;SDS011;53405;57.012;40.984;2023-07-31T09:21:03;5.30;;;3.30;;
59390;SDS011;53405;57.012;40.984;2023-07-31T09:23:45;6.38;;;3.80;;
59390;SDS011;53405;57.012;40.984;2023-07-31T09:26:28;7.32;;;3.65;;
59390;SDS011;53405;57.012;40.984;2023-07-31T09:29:05;7.40;;;3.28;;
59390;SDS011;53405;57.012;40.984;2023-07-31T09:31:42;4.80;;;3.40;;
59390;SDS011;53405;57.012;40.984;2023-07-31T09:34:10;8.15;;;4.40;;
59390;SDS011;53405;57.012;40.984;2023-07-31T09:36:45;7.38;;;3.70;;
59390;SDS011;53405;57.012;40.984;2023-07-31T09:39:15;6.57;;;3.85;;
59390;SDS011;53405;57.012;40.984;2023-07-31T09:41:44;7.15;;;3.88;;
59390;SDS011;53405;57.012;40.984;2023-07-31T09:44:14;7.20;;;3.33;;
59390;SDS011;53405;57.012;40.984;2023-07-31T09:46:41;7.68;;;3.55;;
59390;SDS011;53405;57.012;40.984;2023-07-31T09:49:10;7.63;;;3.67;;
59390;SDS011;53405;57.012;40.984;2023-07-31T09:51:40;10.05;;;4.22;;
59390;SDS011;53405;57.012;40.984;2023-07-31T09:54:12;6.53;;;4.20;;
59390;SDS011;53405;57.012;40.984;2023-07-31T09:56:46;7.82;;;4.20;;
59390;SDS011;53405;57.012;40.984;2023-07-31T09:59:16;7.28;;;3.40;;
59390;SDS011;53405;57.012;40.984;2023-07-31T10:01:48;6.65;;;3.28;;
59390;SDS011;53405;57.012;40.984;2023-07-31T10:04:17;5.20;;;3.38;;
59390;SDS011;53405;57.012;40.984;2023-07-31T10:06:48;7.13;;;3.45;;
59390;SDS011;53405;57.012;40.984;2023-07-31T10:09:19;5.25;;;3.15;;
59390;SDS011;53405;57.012;40.984;2023-07-31T10:11:51;5.88;;;2.90;;
59390;SDS011;53405;57.012;40.984;2023-07-31T10:14:23;5.10;;;2.95;;
59390;SDS011;53405;57.012;40.984;2023-07-31T10:16:51;5.63;;;2.38;;
59390;SDS011;53405;57.012;40.984;2023-07-31T10:19:20;4.45;;;2.60;;
59390;SDS011;53405;57.012;40.984;2023-07-31T10:21:49;4.95;;;2.20;;
59390;SDS011;53405;57.012;40.984;2023-07-31T10:24:17;3.95;;;2.22;;
59390;SDS011;53405;57.012;40.984;2023-07-31T10:26:45;4.60;;;2.30;;
59390;SDS011;53405;57.012;40.984;2023-07-31T10:29:15;6.63;;;2.47;;
59390;SDS011;53405;57.012;40.984;2023-07-31T10:31:45;4.93;;;2.40;;
59390;SDS011;53405;57.012;40.984;2023-07-31T10:34:14;3.65;;;2.13;;
59390;SDS011;53405;57.012;40.984;2023-07-31T10:36:42;5.80;;;2.50;;
59390;SDS011;53405;57.012;40.984;2023-07-31T10:42:10;3.58;;;2.28;;
59390;SDS011;53405;57.012;40.984;2023-07-31T10:44:44;5.20;;;2.10;;
59390;SDS011;53405;57.012;40.984;2023-07-31T10:47:14;4.05;;;2.10;;
59390;SDS011;53405;57.012;40.984;2023-07-31T10:49:46;4.65;;;2.15;;
59390;SDS011;53405;57.012;40.984;2023-07-31T10:52:16;5.65;;;2.10;;
59390;SDS011;53405;57.012;40.984;2023-07-31T10:54:50;3.80;;;2.05;;
59390;SDS011;53405;57.012;40.984;2023-07-31T10:57:50;4.38;;;2.13;;
59390;SDS011;53405;57.012;40.984;2023-07-31T11:02:56;3.50;;;2.05;;
59390;SDS011;53405;57.012;40.984;2023-07-31T11:05:45;5.25;;;2.10;;
59390;SDS011;53405;57.012;40.984;2023-07-31T11:10:43;4.65;;;2.13;;
59390;SDS011;53405;57.012;40.984;2023-07-31T11:13:11;4.70;;;2.38;;
59390;SDS011;53405;57.012;40.984;2023-07-31T11:15:40;3.97;;;2.13;;
59390;SDS011;53405;57.012;40.984;2023-07-31T11:18:07;4.18;;;1.90;;
59390;SDS011;53405;57.012;40.984;2023-07-31T11:20:38;5.00;;;2.20;;
59390;SDS011;53405;57.012;40.984;2023-07-31T11:23:07;3.72;;;2.05;;
59390;SDS011;53405;57.012;40.984;2023-07-31T11:25:37;3.95;;;2.15;;
59390;SDS011;53405;57.012;40.984;2023-07-31T11:28:14;3.90;;;2.20;;
59390;SDS011;53405;57.012;40.984;2023-07-31T11:30:43;4.68;;;2.00;;
59390;SDS011;53405;57.012;40.984;2023-07-31T11:33:13;4.15;;;2.33;;
59390;SDS011;53405;57.012;40.984;2023-07-31T11:35:45;3.60;;;2.08;;
59390;SDS011;53405;57.012;40.984;2023-07-31T11:40:51;3.30;;;2.10;;
59390;SDS011;53405;57.012;40.984;2023-07-31T11:43:20;5.10;;;2.58;;
59390;SDS011;53405;57.012;40.984;2023-07-31T11:45:52;4.32;;;2.53;;
59390;SDS011;53405;57.012;40.984;2023-07-31T11:48:29;5.38;;;2.40;;
59390;SDS011;53405;57.012;40.984;2023-07-31T11:51:01;6.05;;;2.40;;
59390;SDS011;53405;57.012;40.984;2023-07-31T11:53:33;6.25;;;2.33;;
59390;SDS011;53405;57.012;40.984;2023-07-31T11:56:19;6.80;;;2.00;;
59390;SDS011;53405;57.012;40.984;2023-07-31T11:58:49;5.07;;;2.20;;
59390;SDS011;53405;57.012;40.984;2023-07-31T12:01:20;5.15;;;2.13;;
59390;SDS011;53405;57.012;40.984;2023-07-31T12:03:50;3.17;;;1.90;;
59390;SDS011;53405;57.012;40.984;2023-07-31T12:06:19;3.55;;;2.28;;
59390;SDS011;53405;57.012;40.984;2023-07-31T12:11:16;4.88;;;2.25;;
59390;SDS011;53405;57.012;40.984;2023-07-31T12:13:45;5.10;;;2.05;;
59390;SDS011;53405;57.012;40.984;2023-07-31T12:16:12;3.67;;;2.03;;
59390;SDS011;53405;57.012;40.984;2023-07-31T12:18:40;4.40;;;2.10;;
59390;SDS011;53405;57.012;40.984;2023-07-31T12:21:08;5.53;;;2.33;;
59390;SDS011;53405;57.012;40.984;2023-07-31T12:23:38;4.50;;;2.28;;
59390;SDS011;53405;57.012;40.984;2023-07-31T12:26:09;6.07;;;2.10;;
59390;SDS011;53405;57.012;40.984;2023-07-31T12:31:10;3.15;;;1.80;;
59390;SDS011;53405;57.012;40.984;2023-07-31T12:33:58;8.32;;;2.50;;
59390;SDS011;53405;57.012;40.984;2023-07-31T12:36:25;4.65;;;2.00;;
59390;SDS011;53405;57.012;40.984;2023-07-31T12:38:53;4.57;;;2.33;;
59390;SDS011;53405;57.012;40.984;2023-07-31T12:41:23;2.80;;;2.00;;
59390;SDS011;53405;57.012;40.984;2023-07-31T12:43:50;5.07;;;1.90;;
59390;SDS011;53405;57.012;40.984;2023-07-31T12:46:18;5.05;;;2.40;;
59390;SDS011;53405;57.012;40.984;2023-07-31T12:48:45;3.63;;;2.08;;
59390;SDS011;53405;57.012;40.984;2023-07-31T12:51:13;2.95;;;1.95;;
59390;SDS011;53405;57.012;40.984;2023-07-31T12:53:41;4.75;;;2.10;;
59390;SDS011;53405;57.012;40.984;2023-07-31T12:56:08;6.07;;;2.15;;
59390;SDS011;53405;57.012;40.984;2023-07-31T12:58:36;6.82;;;2.50;;
59390;SDS011;53405;57.012;40.984;2023-07-31T13:01:06;7.28;;;2.60;;
59390;SDS011;53405;57.012;40.984;2023-07-31T13:03:34;4.83;;;2.37;;
59390;SDS011;53405;57.012;40.984;2023-07-31T13:06:02;4.05;;;2.47;;
59390;SDS011;53405;57.012;40.984;2023-07-31T13:08:30;4.68;;;2.40;;
59390;SDS011;53405;57.012;40.984;2023-07-31T13:10:58;5.95;;;2.30;;
59390;SDS011;53405;57.012;40.984;2023-07-31T13:13:26;4.78;;;2.55;;
59390;SDS011;53405;57.012;40.984;2023-07-31T13:15:54;4.80;;;2.00;;
59390;SDS011;53405;57.012;40.984;2023-07-31T13:18:21;5.13;;;2.47;;
59390;SDS011;53405;57.012;40.984;2023-07-31T13:20:49;5.03;;;2.05;;
59390;SDS011;53405;57.012;40.984;2023-07-31T13:23:17;5.35;;;2.17;;
59390;SDS011;53405;57.012;40.984;2023-07-31T13:25:44;5.68;;;2.42;;
59390;SDS011;53405;57.012;40.984;2023-07-31T13:28:12;5.18;;;2.50;;
59390;SDS011;53405;57.012;40.984;2023-07-31T13:30:40;5.78;;;3.35;;
59390;SDS011;53405;57.012;40.984;2023-07-31T13:33:07;7.68;;;3.05;;
59390;SDS011;53405;57.012;40.984;2023-07-31T13:35:40;5.70;;;2.20;;
59390;SDS011;53405;57.012;40.984;2023-07-31T13:38:09;6.03;;;2.42;;
59390;SDS011;53405;57.012;40.984;2023-07-31T13:40:37;5.50;;;2.42;;
59390;SDS011;53405;57.012;40.984;2023-07-31T13:43:05;7.60;;;5.28;;
59390;SDS011;53405;57.012;40.984;2023-07-31T13:45:33;6.15;;;3.00;;
59390;SDS011;53405;57.012;40.984;2023-07-31T13:48:00;6.30;;;2.85;;
59390;SDS011;53405;57.012;40.984;2023-07-31T13:50:28;6.03;;;2.60;;
59390;SDS011;53405;57.012;40.984;2023-07-31T13:52:55;5.53;;;2.72;;
59390;SDS011;53405;57.012;40.984;2023-07-31T13:55:24;7.88;;;2.50;;
59390;SDS011;53405;57.012;40.984;2023-07-31T13:57:51;5.05;;;2.45;;
59390;SDS011;53405;57.012;40.984;2023-07-31T14:00:20;6.10;;;2.75;;
59390;SDS011;53405;57.012;40.984;2023-07-31T14:02:48;7.60;;;6.00;;
59390;SDS011;53405;57.012;40.984;2023-07-31T14:05:16;4.93;;;2.78;;
59390;SDS011;53405;57.012;40.984;2023-07-31T14:07:43;6.40;;;2.50;;
59390;SDS011;53405;57.012;40.984;2023-07-31T14:10:11;7.55;;;3.00;;
59390;SDS011;53405;57.012;40.984;2023-07-31T14:12:38;5.63;;;2.50;;
59390;SDS011;53405;57.012;40.984;2023-07-31T14:15:08;6.88;;;2.97;;
59390;SDS011;53405;57.012;40.984;2023-07-31T14:17:36;4.65;;;2.65;;
59390;SDS011;53405;57.012;40.984;2023-07-31T14:20:04;19.60;;;14.13;;
59390;SDS011;53405;57.012;40.984;2023-07-31T14:22:32;9.35;;;2.90;;
59390;SDS011;53405;57.012;40.984;2023-07-31T14:25:01;4.65;;;2.95;;
59390;SDS011;53405;57.012;40.984;2023-07-31T14:27:30;8.90;;;2.70;;
59390;SDS011;53405;57.012;40.984;2023-07-31T14:29:57;6.03;;;2.63;;
59390;SDS011;53405;57.012;40.984;2023-07-31T14:32:25;5.80;;;3.40;;
59390;SDS011;53405;57.012;40.984;2023-07-31T14:34:53;7.82;;;3.67;;
59390;SDS011;53405;57.012;40.984;2023-07-31T14:37:21;5.10;;;2.70;;
59390;SDS011;53405;57.012;40.984;2023-07-31T14:39:50;5.07;;;2.55;;
59390;SDS011;53405;57.012;40.984;2023-07-31T14:42:17;6.28;;;3.10;;
59390;SDS011;53405;57.012;40.984;2023-07-31T14:44:46;8.05;;;3.60;;
59390;SDS011;53405;57.012;40.984;2023-07-31T14:47:14;5.37;;;2.87;;
59390;SDS011;53405;57.012;40.984;2023-07-31T14:49:42;6.38;;;2.83;;
59390;SDS011;53405;57.012;40.984;2023-07-31T14:52:09;10.60;;;3.80;;
59390;SDS011;53405;57.012;40.984;2023-07-31T14:54:37;7.80;;;3.17;;
59390;SDS011;53405;57.012;40.984;2023-07-31T14:57:05;7.38;;;3.67;;
59390;SDS011;53405;57.012;40.984;2023-07-31T14:59:33;7.10;;;3.45;;
59390;SDS011;53405;57.012;40.984;2023-07-31T15:02:00;8.15;;;3.33;;
59390;SDS011;53405;57.012;40.984;2023-07-31T15:04:28;6.65;;;3.50;;